Time;durP1;ratioP1;P1;durP2;ratioP2;P2;SDS_P1;SDS_P2;PMS_P1;PMS_P2;Temp;Humidity;BMP_temperature;BMP_pressure;BME280_temperature;BME280_humidity;BME280_pressure;Samples;Min_cycle;Max_cycle;Signal;HPM_P1;HPM_P2
2023/10/14 00:02:11;;;;;;;20.88;12.82;;;;;;;;;;10538254;28;20024;-63
2023/10/14 00:07:17;;;;;;;13.50;11.37;;;;;;;;;;10538894;28;20024;-63
2023/10/14 00:12:20;;;;;;;20.30;11.23;;;;;;;;;;10538573;28;20028;-61
2023/10/14 00:17:20;;;;;;;18.05;11.75;;;;;;;;;;10537987;28;20060;-63
2023/10/14 00:22:22;;;;;;;25.27;11.98;;;;;;;;;;10537843;28;20456;-62
2023/10/14 00:27:23;;;;;;;14.60;11.88;;;;;;;;;;10537852;28;20028;-61
2023/10/14 00:32:24;;;;;;;15.70;10.57;;;;;;;;;;10537601;28;20032;-62
2023/10/14 00:37:25;;;;;;;17.88;11.10;;;;;;;;;;10537201;28;20024;-63
2023/10/14 00:42:26;;;;;;;15.48;11.48;;;;;;;;;;10537212;28;20488;-61
2023/10/14 00:47:26;;;;;;;12.85;10.13;;;;;;;;;;10537410;28;20093;-61
2023/10/14 00:52:29;;;;;;;14.60;10.32;;;;;;;;;;10535214;28;20090;-62
2023/10/14 00:57:38;;;;;;;14.95;9.27;;;;;;;;;;10535221;28;20051;-62
2023/10/14 01:02:42;;;;;;;11.90;9.93;;;;;;;;;;10537059;28;20020;-62
2023/10/14 01:07:42;;;;;;;18.33;11.02;;;;;;;;;;10535974;28;20142;-62
2023/10/14 01:12:48;;;;;;;14.35;10.02;;;;;;;;;;10534058;28;20035;-61
2023/10/14 01:17:52;;;;;;;14.30;9.93;;;;;;;;;;10536244;28;20028;-61
2023/10/14 01:23:06;;;;;;;12.32;10.45;;;;;;;;;;10536040;28;20506;-61
2023/10/14 01:28:12;;;;;;;14.48;10.45;;;;;;;;;;10535411;28;20032;-64
2023/10/14 01:33:15;;;;;;;14.40;9.60;;;;;;;;;;10534296;28;20024;-62
2023/10/14 01:38:16;;;;;;;12.52;10.02;;;;;;;;;;10534761;28;20534;-64
2023/10/14 01:43:16;;;;;;;12.43;9.45;;;;;;;;;;10534481;28;20061;-63
2023/10/14 01:48:25;;;;;;;12.63;9.98;;;;;;;;;;10534447;28;20051;-63
2023/10/14 01:53:32;;;;;;;13.60;9.95;;;;;;;;;;10534318;28;20077;-63
2023/10/14 01:58:33;;;;;;;11.97;9.13;;;;;;;;;;10534532;28;20024;-63
2023/10/14 02:03:41;;;;;;;12.82;9.02;;;;;;;;;;10534322;28;20040;-63
2023/10/14 02:08:42;;;;;;;;;;;;;;;;;;10534341;28;20070;-65
2023/10/14 02:13:43;;;;;;;12.32;9.18;;;;;;;;;;10533322;28;20363;-62
2023/10/14 02:18:44;;;;;;;13.10;10.05;;;;;;;;;;10533442;28;20379;-62
2023/10/14 02:23:45;;;;;;;11.88;9.18;;;;;;;;;;10533139;28;20119;-62
2023/10/14 02:28:46;;;;;;;9.95;8.60;;;;;;;;;;10533040;28;20495;-64
2023/10/14 02:33:47;;;;;;;15.13;9.02;;;;;;;;;;10533780;28;20039;-62
2023/10/14 02:38:54;;;;;;;12.98;9.85;;;;;;;;;;10532832;28;20476;-62
2023/10/14 02:49:14;;;;;;;12.95;8.50;;;;;;;;;;10541385;28;20048;-62
2023/10/14 02:54:15;;;;;;;10.73;8.98;;;;;;;;;;10541087;28;20042;-61
2023/10/14 02:59:17;;;;;;;10.35;8.30;;;;;;;;;;10540943;28;20540;-62
2023/10/14 03:04:24;;;;;;;14.00;8.63;;;;;;;;;;10541276;28;20031;-68
2023/10/14 03:09:32;;;;;;;12.25;8.77;;;;;;;;;;10541206;28;20032;-63
2023/10/14 03:14:40;;;;;;;9.25;7.85;;;;;;;;;;10540909;28;20475;-65
2023/10/14 03:19:41;;;;;;;14.33;8.17;;;;;;;;;;10540204;28;20480;-66
2023/10/14 03:24:43;;;;;;;15.77;8.45;;;;;;;;;;10540204;28;20076;-69
2023/10/14 03:29:47;;;;;;;12.27;8.70;;;;;;;;;;10540453;28;20028;-69
2023/10/14 03:34:47;;;;;;;15.88;8.60;;;;;;;;;;10539796;28;20486;-69
2023/10/14 03:41:03;;;;;;;12.40;8.57;;;;;;;;;;10539998;28;20024;-66
2023/10/14 03:45:20;;;;;;;11.10;8.35;;;;;;;;;;10539503;28;20064;-68
2023/10/14 03:50:24;;;;;;;14.45;8.43;;;;;;;;;;10538889;28;20475;-70
2023/10/14 03:55:27;;;;;;;10.23;8.27;;;;;;;;;;10538480;28;20090;-69
2023/10/14 04:00:36;;;;;;;9.50;7.85;;;;;;;;;;10539242;28;20051;-70
2023/10/14 04:05:41;;;;;;;12.77;8.65;;;;;;;;;;10539010;28;20031;-70
2023/10/14 04:10:54;;;;;;;10.27;7.93;;;;;;;;;;10538752;28;20132;-68
2023/10/14 04:15:58;;;;;;;12.88;8.20;;;;;;;;;;10537978;28;20190;-71
2023/10/14 04:21:26;;;;;;;9.15;7.88;;;;;;;;;;10538460;28;20056;-70
2023/10/14 04:26:22;;;;;;;8.88;7.57;;;;;;;;;;10537310;28;20068;-69
2023/10/14 04:31:40;;;;;;;12.55;8.20;;;;;;;;;;10537720;28;20028;-71
2023/10/14 04:36:56;;;;;;;10.55;7.93;;;;;;;;;;10537415;28;20113;-64
2023/10/14 04:52:36;;;;;;;8.98;6.95;;;;;;;;;;10536645;28;20024;-69
2023/10/14 04:57:40;;;;;;;12.68;7.85;;;;;;;;;;10536782;28;20027;-66
2023/10/14 05:02:41;;;;;;;10.80;7.38;;;;;;;;;;10536070;28;20444;-68
2023/10/14 05:07:41;;;;;;;9.05;7.10;;;;;;;;;;10535096;28;20043;-69
2023/10/14 05:12:51;;;;;;;7.70;6.75;;;;;;;;;;10535666;28;20302;-68
2023/10/14 05:17:52;;;;;;;10.90;7.60;;;;;;;;;;10535630;28;20028;-69
2023/10/14 05:22:53;;;;;;;8.57;7.15;;;;;;;;;;10535387;28;20230;-65
2023/10/14 05:27:55;;;;;;;12.45;7.38;;;;;;;;;;10535496;28;20269;-66
2023/10/14 05:32:56;;;;;;;8.60;7.28;;;;;;;;;;10535781;28;20039;-70
2023/10/14 05:37:57;;;;;;;9.55;7.03;;;;;;;;;;10534621;28;20032;-67
2023/10/14 05:42:57;;;;;;;8.60;6.85;;;;;;;;;;10534270;28;20024;-69
2023/10/14 05:47:58;;;;;;;9.85;7.10;;;;;;;;;;10533848;28;20047;-67
2023/10/14 05:53:00;;;;;;;7.78;6.97;;;;;;;;;;10533938;28;20024;-69
2023/10/14 05:58:00;;;;;;;9.95;7.60;;;;;;;;;;10534397;28;20031;-68
2023/10/14 06:03:06;;;;;;;13.68;6.85;;;;;;;;;;10533641;28;20131;-67
2023/10/14 06:08:11;;;;;;;8.80;6.60;;;;;;;;;;10533638;28;20518;-68
2023/10/14 06:13:14;;;;;;;8.25;6.65;;;;;;;;;;10532524;28;20035;-68
2023/10/14 06:18:14;;;;;;;9.55;7.07;;;;;;;;;;10531910;28;20379;-68
2023/10/14 06:23:15;;;;;;;8.05;6.30;;;;;;;;;;10532519;28;20024;-66
2023/10/14 06:28:15;;;;;;;7.78;6.63;;;;;;;;;;10532621;28;20020;-69
2023/10/14 06:33:16;;;;;;;13.90;6.78;;;;;;;;;;10532653;28;20031;-68
2023/10/14 06:38:20;;;;;;;13.20;7.07;;;;;;;;;;10532803;28;20024;-69
2023/10/14 06:43:25;;;;;;;12.88;6.97;;;;;;;;;;10533674;28;20056;-67
2023/10/14 06:48:26;;;;;;;8.55;6.80;;;;;;;;;;10532476;28;20491;-67
2023/10/14 06:53:29;;;;;;;7.78;6.93;;;;;;;;;;10532460;28;20036;-67
2023/10/14 06:58:32;;;;;;;13.85;6.40;;;;;;;;;;10532466;28;20408;-69
2023/10/14 07:03:33;;;;;;;8.55;6.75;;;;;;;;;;10532167;28;20066;-67
2023/10/14 07:08:36;;;;;;;9.45;5.93;;;;;;;;;;10531597;28;20028;-68
2023/10/14 07:13:38;;;;;;;17.20;7.18;;;;;;;;;;10530959;28;20607;-67
2023/10/14 07:18:40;;;;;;;24.05;11.30;;;;;;;;;;10530919;28;20028;-66
2023/10/14 07:23:40;;;;;;;20.33;10.27;;;;;;;;;;10530490;28;20413;-66
2023/10/14 07:28:42;;;;;;;31.10;14.30;;;;;;;;;;10531891;28;20048;-67
2023/10/14 07:33:43;;;;;;;27.15;14.60;;;;;;;;;;10537193;28;20028;-66
2023/10/14 07:38:44;;;;;;;31.38;14.75;;;;;;;;;;10538263;28;20139;-65
2023/10/14 07:43:44;;;;;;;25.30;13.95;;;;;;;;;;10538445;28;20031;-64
2023/10/14 07:48:45;;;;;;;28.05;13.70;;;;;;;;;;10538366;28;20044;-63
2023/10/14 07:53:46;;;;;;;21.98;13.23;;;;;;;;;;10537644;28;20437;-63
2023/10/14 07:58:46;;;;;;;24.30;13.90;;;;;;;;;;10537532;28;20430;-64
2023/10/14 08:03:47;;;;;;;21.38;13.20;;;;;;;;;;10538113;28;20036;-63
2023/10/14 08:08:48;;;;;;;21.35;12.05;;;;;;;;;;10537323;28;20020;-65
2023/10/14 08:13:49;;;;;;;25.02;12.88;;;;;;;;;;10537341;28;20086;-64
2023/10/14 08:18:53;;;;;;;21.58;11.90;;;;;;;;;;10538526;28;20108;-70
2023/10/14 08:23:54;;;;;;;29.05;16.08;;;;;;;;;;10537319;28;20038;-69
2023/10/14 08:29:00;;;;;;;30.05;14.68;;;;;;;;;;10536644;28;20509;-67
2023/10/14 08:34:07;;;;;;;23.65;16.02;;;;;;;;;;10536420;28;20084;-68
2023/10/14 08:39:08;;;;;;;24.60;14.95;;;;;;;;;;10535213;28;20516;-69
2023/10/14 08:44:11;;;;;;;25.50;14.13;;;;;;;;;;10536167;28;20085;-70
2023/10/14 08:49:12;;;;;;;26.67;15.02;;;;;;;;;;10536033;28;20036;-70
2023/10/14 08:54:14;;;;;;;28.63;14.63;;;;;;;;;;10535660;28;20423;-69
2023/10/14 08:59:16;;;;;;;25.52;15.95;;;;;;;;;;10535157;28;20016;-69
2023/10/14 09:04:27;;;;;;;36.65;16.67;;;;;;;;;;10536096;28;20056;-70
2023/10/14 09:09:28;;;;;;;28.77;17.02;;;;;;;;;;10535963;28;20062;-70
2023/10/14 09:14:29;;;;;;;28.10;13.90;;;;;;;;;;10535767;28;20032;-69
2023/10/14 09:19:46;;;;;;;27.02;15.00;;;;;;;;;;10535562;28;20463;-70
2023/10/14 09:24:52;;;;;;;28.03;15.63;;;;;;;;;;10535400;28;20031;-69
2023/10/14 09:29:57;;;;;;;21.02;14.35;;;;;;;;;;10535622;28;20032;-65
2023/10/14 09:34:59;;;;;;;22.10;14.90;;;;;;;;;;10535020;28;20032;-71
2023/10/14 09:40:08;;;;;;;28.42;14.23;;;;;;;;;;10535288;28;20024;-70
2023/10/14 09:45:11;;;;;;;19.85;14.85;;;;;;;;;;10535182;28;20024;-70
2023/10/14 09:50:13;;;;;;;24.88;15.68;;;;;;;;;;10532887;28;20044;-71
2023/10/14 09:55:15;;;;;;;27.90;15.65;;;;;;;;;;10533961;28;20032;-71
2023/10/14 10:00:16;;;;;;;31.23;16.05;;;;;;;;;;10533817;28;20024;-71
2023/10/14 10:05:36;;;;;;;25.83;17.55;;;;;;;;;;10533608;28;20024;-70
2023/10/14 10:10:39;;;;;;;32.67;17.65;;;;;;;;;;10533980;28;20024;-71
2023/10/14 10:15:40;;;;;;;38.63;23.98;;;;;;;;;;10532585;28;20036;-70
2023/10/14 10:20:56;;;;;;;36.13;23.73;;;;;;;;;;10533383;28;20047;-71
2023/10/14 10:25:59;;;;;;;40.83;26.77;;;;;;;;;;10533172;28;20016;-69
2023/10/14 10:31:09;;;;;;;53.90;27.38;;;;;;;;;;10533369;28;20103;-68
2023/10/14 10:36:12;;;;;;;51.67;31.30;;;;;;;;;;10533572;28;20171;-68
2023/10/14 10:41:26;;;;;;;51.45;33.80;;;;;;;;;;10531312;28;20070;-69
2023/10/14 10:46:45;;;;;;;54.28;35.10;;;;;;;;;;10532933;28;20035;-70
2023/10/14 10:52:08;;;;;;;62.20;35.55;;;;;;;;;;10532436;28;20176;-68
2023/10/14 10:57:11;;;;;;;59.67;35.03;;;;;;;;;;10532401;28;20372;-70
2023/10/14 11:02:18;;;;;;;67.55;40.10;;;;;;;;;;10532644;28;20013;-70
2023/10/14 11:07:22;;;;;;;65.00;39.60;;;;;;;;;;10541423;28;20111;-66
2023/10/14 11:12:23;;;;;;;53.92;36.58;;;;;;;;;;10540532;28;20547;-70
2023/10/14 11:17:26;;;;;;;62.13;39.13;;;;;;;;;;10540595;28;20032;-70
2023/10/14 11:22:27;;;;;;;63.47;40.00;;;;;;;;;;10540264;28;20027;-70
2023/10/14 11:27:30;;;;;;;63.08;39.25;;;;;;;;;;10540431;28;20028;-67
2023/10/14 11:32:31;;;;;;;65.30;37.40;;;;;;;;;;10540055;28;20032;-70
2023/10/14 11:37:36;;;;;;;64.75;38.78;;;;;;;;;;10539974;28;20024;-70
2023/10/14 11:42:37;;;;;;;63.88;38.90;;;;;;;;;;10539763;28;20055;-70
2023/10/14 11:47:41;;;;;;;56.30;36.78;;;;;;;;;;10539004;28;20044;-70
2023/10/14 11:52:43;;;;;;;64.55;37.50;;;;;;;;;;10538947;28;20538;-69
2023/10/14 11:57:45;;;;;;;62.88;37.72;;;;;;;;;;10539490;28;20032;-70
2023/10/14 12:02:46;;;;;;;63.33;37.63;;;;;;;;;;10538933;28;20034;-70
2023/10/14 12:07:47;;;;;;;55.80;34.83;;;;;;;;;;10538314;28;20024;-69
2023/10/14 12:12:52;;;;;;;55.45;34.50;;;;;;;;;;10536777;28;20472;-66
2023/10/14 12:17:53;;;;;;;49.63;33.85;;;;;;;;;;10536895;28;20102;-70
2023/10/14 12:22:54;;;;;;;54.85;32.42;;;;;;;;;;10538367;28;20107;-72
2023/10/14 12:27:54;;;;;;;53.55;31.58;;;;;;;;;;10537650;28;20023;-71
2023/10/14 12:32:56;;;;;;;49.78;29.05;;;;;;;;;;10537470;28;20109;-66
2023/10/14 12:37:57;;;;;;;45.75;29.08;;;;;;;;;;10537704;28;20028;-67
2023/10/14 12:43:01;;;;;;;41.65;27.38;;;;;;;;;;10536832;28;20077;-67
2023/10/14 12:48:11;;;;;;;42.70;27.02;;;;;;;;;;10536522;28;20145;-67
2023/10/14 12:53:13;;;;;;;43.55;25.50;;;;;;;;;;10536573;28;20028;-67
2023/10/14 12:58:15;;;;;;;40.90;24.70;;;;;;;;;;10536851;28;20024;-67
2023/10/14 13:03:17;;;;;;;34.85;23.55;;;;;;;;;;10535964;28;20027;-68
2023/10/14 13:08:19;;;;;;;30.85;21.77;;;;;;;;;;10535693;28;20020;-65
2023/10/14 13:13:20;;;;;;;31.30;21.58;;;;;;;;;;10536201;28;20024;-63
2023/10/14 13:18:24;;;;;;;40.20;21.75;;;;;;;;;;10535996;28;20107;-66
2023/10/14 13:23:25;;;;;;;33.22;19.17;;;;;;;;;;10535197;28;20020;-67
2023/10/14 13:28:25;;;;;;;30.13;18.55;;;;;;;;;;10534725;28;20043;-67
2023/10/14 13:33:26;;;;;;;29.80;18.98;;;;;;;;;;10535100;28;20418;-66
2023/10/14 13:38:26;;;;;;;29.92;19.48;;;;;;;;;;10534683;28;20024;-64
2023/10/14 13:43:27;;;;;;;25.42;17.88;;;;;;;;;;10535044;28;20016;-66
2023/10/14 13:48:29;;;;;;;28.73;17.77;;;;;;;;;;10533316;28;20040;-66
2023/10/14 13:53:33;;;;;;;25.63;16.50;;;;;;;;;;10534381;28;20141;-66
2023/10/14 13:58:34;;;;;;;25.58;15.73;;;;;;;;;;10534547;28;20028;-67
2023/10/14 14:03:38;;;;;;;22.75;16.65;;;;;;;;;;10533640;28;20036;-67
2023/10/14 14:08:38;;;;;;;20.05;14.90;;;;;;;;;;10533672;28;20360;-67
2023/10/14 14:13:42;;;;;;;20.50;15.43;;;;;;;;;;10533386;28;20032;-66
2023/10/14 14:18:43;;;;;;;26.40;14.70;;;;;;;;;;10533206;28;20024;-66
2023/10/14 14:23:44;;;;;;;18.70;14.07;;;;;;;;;;10533129;28;20024;-66
2023/10/14 14:28:46;;;;;;;22.65;14.57;;;;;;;;;;10533636;28;20032;-66
2023/10/14 14:33:47;;;;;;;20.13;14.40;;;;;;;;;;10532778;28;20039;-66
2023/10/14 14:38:48;;;;;;;20.73;14.25;;;;;;;;;;10533255;28;20024;-67
2023/10/14 14:43:49;;;;;;;20.23;13.93;;;;;;;;;;10533783;28;20097;-66
2023/10/14 14:48:49;;;;;;;17.83;13.70;;;;;;;;;;10532757;28;20097;-67
2023/10/14 14:53:50;;;;;;;17.25;13.95;;;;;;;;;;10532676;28;20379;-67
2023/10/14 14:58:50;;;;;;;14.82;12.77;;;;;;;;;;10532469;28;20020;-67
2023/10/14 15:03:52;;;;;;;17.55;13.50;;;;;;;;;;10532372;28;20031;-67
2023/10/14 15:08:53;;;;;;;15.75;12.60;;;;;;;;;;10532482;28;20135;-67
2023/10/14 15:13:54;;;;;;;16.83;13.18;;;;;;;;;;10530735;28;20039;-66
2023/10/14 15:18:54;;;;;;;16.05;11.45;;;;;;;;;;10531668;28;20371;-67
2023/10/14 15:23:55;;;;;;;20.75;12.75;;;;;;;;;;10530939;28;20418;-66
2023/10/14 15:28:56;;;;;;;16.15;11.75;;;;;;;;;;10531499;28;20105;-67
2023/10/14 15:33:59;;;;;;;21.58;12.35;;;;;;;;;;10531884;28;20035;-67
2023/10/14 15:39:00;;;;;;;16.50;11.93;;;;;;;;;;10530144;28;20028;-67
2023/10/14 15:44:01;;;;;;;17.42;12.43;;;;;;;;;;10532195;28;20028;-67
2023/10/14 15:49:03;;;;;;;14.10;11.15;;;;;;;;;;10532486;28;20510;-67
2023/10/14 15:54:06;;;;;;;15.75;11.32;;;;;;;;;;10539622;28;20036;-66
2023/10/14 15:59:06;;;;;;;15.07;10.57;;;;;;;;;;10539545;28;20069;-67
2023/10/14 16:04:08;;;;;;;16.92;11.77;;;;;;;;;;10538562;28;20085;-67
2023/10/14 16:09:09;;;;;;;14.70;11.68;;;;;;;;;;10538971;28;20034;-65
2023/10/14 16:14:13;;;;;;;13.40;11.45;;;;;;;;;;10538469;28;20467;-65
2023/10/14 16:19:17;;;;;;;14.57;11.68;;;;;;;;;;10538134;28;20062;-66
2023/10/14 16:24:18;;;;;;;13.32;11.35;;;;;;;;;;10538540;28;20030;-66
2023/10/14 16:29:19;;;;;;;14.10;10.63;;;;;;;;;;10538311;28;20035;-66
2023/10/14 16:34:25;;;;;;;11.70;10.27;;;;;;;;;;10537099;28;20032;-65
2023/10/14 16:39:26;;;;;;;14.30;10.85;;;;;;;;;;10537564;28;20024;-64
2023/10/14 16:44:28;;;;;;;12.63;10.82;;;;;;;;;;10537098;28;20482;-66
2023/10/14 16:49:30;;;;;;;14.80;11.25;;;;;;;;;;10536921;28;20048;-66
2023/10/14 16:54:31;;;;;;;14.07;10.50;;;;;;;;;;10536559;28;20109;-65
2023/10/14 16:59:31;;;;;;;14.98;10.05;;;;;;;;;;10537596;28;20089;-65
2023/10/14 17:04:33;;;;;;;15.07;10.90;;;;;;;;;;10535047;28;20029;-63
2023/10/14 17:09:33;;;;;;;12.50;10.38;;;;;;;;;;10535879;28;20178;-66
2023/10/14 17:14:34;;;;;;;15.80;9.80;;;;;;;;;;10536388;28;20174;-65
2023/10/14 17:19:34;;;;;;;11.95;10.13;;;;;;;;;;10535109;28;20024;-66
2023/10/14 17:24:35;;;;;;;13.73;11.13;;;;;;;;;;10535158;28;20028;-67
2023/10/14 17:29:36;;;;;;;19.27;10.90;;;;;;;;;;10534820;28;20024;-67
2023/10/14 17:34:40;;;;;;;14.40;10.02;;;;;;;;;;10534802;28;20460;-66
2023/10/14 17:39:40;;;;;;;13.30;10.57;;;;;;;;;;10533161;28;20506;-66
2023/10/14 17:44:41;;;;;;;13.98;11.48;;;;;;;;;;10534184;28;20016;-65
2023/10/14 17:49:41;;;;;;;11.80;10.60;;;;;;;;;;10533644;28;20036;-65
2023/10/14 17:54:43;;;;;;;11.57;9.63;;;;;;;;;;10532915;28;20035;-65
2023/10/14 17:59:44;;;;;;;17.13;10.02;;;;;;;;;;10534208;28;20036;-65
2023/10/14 18:04:44;;;;;;;21.80;11.40;;;;;;;;;;10532652;28;20043;-65
2023/10/14 18:09:45;;;;;;;25.33;12.57;;;;;;;;;;10533347;28;20028;-62
2023/10/14 18:14:48;;;;;;;24.75;12.38;;;;;;;;;;10531911;28;20078;-64
2023/10/14 18:19:49;;;;;;;26.27;12.90;;;;;;;;;;10531528;28;20028;-65
2023/10/14 18:24:50;;;;;;;22.27;13.45;;;;;;;;;;10531780;28;20032;-65
2023/10/14 18:29:51;;;;;;;23.63;13.82;;;;;;;;;;10531229;28;20032;-65
2023/10/14 18:34:51;;;;;;;25.02;13.75;;;;;;;;;;10533481;28;20051;-62
2023/10/14 18:39:54;;;;;;;23.08;13.43;;;;;;;;;;10532341;28;20422;-65
2023/10/14 18:44:55;;;;;;;27.55;14.15;;;;;;;;;;10532936;28;20031;-66
2023/10/14 18:49:55;;;;;;;24.10;14.68;;;;;;;;;;10532354;28;20048;-65
2023/10/14 18:54:56;;;;;;;21.25;14.02;;;;;;;;;;10532546;28;20034;-65
2023/10/14 18:59:56;;;;;;;21.38;14.07;;;;;;;;;;10532693;28;20387;-65
2023/10/14 19:04:58;;;;;;;22.25;14.65;;;;;;;;;;10531226;28;20392;-65
2023/10/14 19:09:59;;;;;;;23.33;15.52;;;;;;;;;;10530980;28;20085;-65
2023/10/14 19:14:59;;;;;;;21.08;15.48;;;;;;;;;;10531240;28;20040;-65
2023/10/14 19:20:00;;;;;;;24.85;16.50;;;;;;;;;;10532325;28;20027;-63
2023/10/14 19:25:01;;;;;;;24.30;16.80;;;;;;;;;;10534376;28;20042;-66
2023/10/14 19:30:05;;;;;;;25.98;16.02;;;;;;;;;;10538146;28;20621;-66
2023/10/14 19:35:10;;;;;;;27.83;16.52;;;;;;;;;;10538180;28;20105;-66
2023/10/14 19:40:14;;;;;;;26.73;17.05;;;;;;;;;;10539477;28;20035;-65
2023/10/14 19:45:18;;;;;;;23.42;16.23;;;;;;;;;;10539275;28;20036;-65
2023/10/14 19:50:19;;;;;;;27.45;16.17;;;;;;;;;;10536501;28;20105;-63
2023/10/14 19:55:23;;;;;;;32.05;18.95;;;;;;;;;;10537216;28;20024;-62
2023/10/14 20:00:27;;;;;;;27.65;18.08;;;;;;;;;;10537910;28;20016;-64
2023/10/14 20:05:35;;;;;;;25.65;17.52;;;;;;;;;;10537480;28;20028;-62
2023/10/14 20:10:40;;;;;;;34.13;18.98;;;;;;;;;;10536916;28;20483;-65
2023/10/14 20:15:42;;;;;;;30.80;17.65;;;;;;;;;;10536697;28;20053;-62
2023/10/14 20:20:44;;;;;;;23.63;16.95;;;;;;;;;;10537616;28;20113;-65
2023/10/14 20:25:51;;;;;;;25.63;17.17;;;;;;;;;;10537925;28;20031;-64
2023/10/14 20:30:52;;;;;;;27.05;16.77;;;;;;;;;;10536479;28;20142;-65
2023/10/14 20:35:54;;;;;;;20.38;15.25;;;;;;;;;;10536019;28;20368;-65
2023/10/14 20:40:55;;;;;;;31.98;16.60;;;;;;;;;;10535974;28;20341;-65
2023/10/14 20:45:58;;;;;;;25.02;15.23;;;;;;;;;;10535995;28;20024;-65
2023/10/14 20:50:59;;;;;;;23.80;15.32;;;;;;;;;;10535736;28;20549;-65
2023/10/14 20:55:59;;;;;;;24.15;15.57;;;;;;;;;;10534128;28;20089;-65
2023/10/14 21:01:00;;;;;;;18.08;14.05;;;;;;;;;;10535333;28;20028;-65
2023/10/14 21:06:05;;;;;;;22.50;14.70;;;;;;;;;;10535504;28;20032;-66
2023/10/14 21:11:11;;;;;;;18.60;13.77;;;;;;;;;;10533457;28;20496;-65
2023/10/14 21:16:11;;;;;;;18.52;13.52;;;;;;;;;;10533379;28;20024;-65
2023/10/14 21:21:15;;;;;;;21.67;14.25;;;;;;;;;;10535086;28;20024;-65
2023/10/14 21:26:16;;;;;;;18.60;13.35;;;;;;;;;;10533924;28;20084;-65
2023/10/14 21:31:16;;;;;;;17.90;12.65;;;;;;;;;;10534511;28;20053;-64
2023/10/14 21:36:17;;;;;;;18.83;12.95;;;;;;;;;;10532868;28;20548;-63
2023/10/14 21:41:18;;;;;;;20.90;12.98;;;;;;;;;;10533303;28;20271;-65
2023/10/14 21:46:21;;;;;;;20.52;13.30;;;;;;;;;;10533803;28;20059;-64
2023/10/14 21:51:23;;;;;;;16.75;12.80;;;;;;;;;;10533682;28;20037;-65
2023/10/14 21:56:24;;;;;;;19.10;11.88;;;;;;;;;;10532983;28;20028;-65
2023/10/14 22:01:25;;;;;;;23.55;13.80;;;;;;;;;;10533817;28;20073;-63
2023/10/14 22:06:25;;;;;;;17.50;12.15;;;;;;;;;;10533802;28;20575;-64
2023/10/14 22:11:26;;;;;;;23.50;13.07;;;;;;;;;;10529959;28;20028;-63
2023/10/14 22:16:27;;;;;;;17.00;13.05;;;;;;;;;;10531247;28;20042;-64
2023/10/14 22:21:30;;;;;;;22.50;12.70;;;;;;;;;;10531383;28;20032;-64
2023/10/14 22:26:32;;;;;;;19.25;13.40;;;;;;;;;;10532533;28;20182;-65
2023/10/14 22:31:33;;;;;;;18.38;12.10;;;;;;;;;;10531543;28;20020;-64
2023/10/14 22:36:33;;;;;;;17.65;12.63;;;;;;;;;;10531492;28;20020;-65
2023/10/14 22:41:34;;;;;;;15.23;11.73;;;;;;;;;;10531570;28;20027;-65
2023/10/14 22:46:34;;;;;;;16.48;12.18;;;;;;;;;;10529874;28;20032;-65
2023/10/14 22:51:35;;;;;;;19.13;11.63;;;;;;;;;;10530641;28;20024;-62
2023/10/14 22:56:36;;;;;;;18.10;12.93;;;;;;;;;;10531666;28;20039;-65
2023/10/14 23:01:36;;;;;;;26.02;12.40;;;;;;;;;;10537902;28;20089;-66
2023/10/14 23:06:37;;;;;;;24.67;12.07;;;;;;;;;;10540790;28;20376;-62
2023/10/14 23:11:39;;;;;;;22.63;13.52;;;;;;;;;;10540584;28;20020;-66
2023/10/14 23:16:39;;;;;;;33.38;15.00;;;;;;;;;;10540511;28;20427;-65
2023/10/14 23:21:40;;;;;;;23.45;14.45;;;;;;;;;;10540349;28;20082;-65
2023/10/14 23:26:42;;;;;;;18.58;13.82;;;;;;;;;;10539822;28;20459;-65
2023/10/14 23:31:42;;;;;;;25.13;17.10;;;;;;;;;;10540494;28;20081;-65
2023/10/14 23:36:44;;;;;;;29.60;16.15;;;;;;;;;;10539875;28;20267;-64
2023/10/14 23:41:45;;;;;;;22.00;16.00;;;;;;;;;;10539499;28;20040;-65
2023/10/14 23:46:47;;;;;;;26.55;16.25;;;;;;;;;;10539432;28;20036;-65
2023/10/14 23:51:49;;;;;;;21.60;15.70;;;;;;;;;;10539625;28;20024;-64
2023/10/14 23:56:54;;;;;;;23.98;16.70;;;;;;;;;;10538647;28;20483;-65
